createdAt,value
2018-03-11T17:48:31.255Z,6.61
2018-03-11T17:54:21.958Z,5.8
2018-03-11T18:00:12.651Z,5.11
2018-03-11T18:06:03.406Z,4.81
2018-03-11T18:11:54.114Z,4.18
2018-03-11T18:17:44.922Z,3.78
2018-03-11T18:23:35.684Z,3.83
2018-03-11T18:29:26.401Z,3.11
2018-03-11T18:35:17.083Z,3.42
2018-03-11T18:41:07.772Z,3.79
2018-03-11T18:46:58.572Z,3.32
2018-03-11T18:52:49.206Z,2.85
2018-03-11T18:58:39.986Z,2.41
2018-03-11T19:04:30.670Z,2.79
2018-03-11T19:10:21.433Z,2.91
2018-03-11T19:16:12.113Z,3.65
2018-03-11T19:22:02.796Z,3.99
2018-03-11T19:27:53.476Z,2.93
2018-03-11T19:33:44.235Z,3.13
2018-03-11T19:39:34.957Z,3.85
2018-03-11T19:45:25.689Z,2.48
2018-03-11T19:51:16.406Z,1.96
2018-03-11T19:57:07.101Z,2.41
2018-03-11T20:02:57.846Z,2.69
2018-03-11T20:08:48.523Z,2.99
2018-03-11T20:14:39.248Z,3.15
2018-03-11T20:20:30.001Z,3.29
2018-03-11T20:26:25.938Z,3.04
2018-03-11T20:32:11.400Z,3.44
2018-03-11T20:38:02.194Z,3.39
2018-03-11T20:43:52.828Z,2.89
2018-03-11T20:49:43.576Z,2.59
2018-03-11T20:55:34.295Z,3.24
2018-03-11T21:01:24.996Z,3.41
2018-03-11T21:07:15.764Z,2.71
2018-03-11T21:13:06.405Z,3.24
2018-03-11T21:18:57.142Z,2.58
2018-03-11T21:24:47.941Z,2.98
2018-03-11T21:30:38.568Z,3.19
2018-03-11T21:36:29.276Z,2.54
2018-03-11T21:42:20.004Z,3.21
2018-03-11T21:48:10.746Z,2.9
2018-03-11T21:54:01.471Z,3.44
2018-03-11T21:59:52.170Z,2.53
2018-03-11T22:05:42.858Z,3.24
2018-03-11T22:11:33.555Z,2.64
2018-03-11T22:17:24.318Z,2.18
2018-03-11T22:23:15.021Z,2.93
2018-03-11T22:29:05.720Z,2.46
2018-03-11T22:34:56.423Z,1.97
2018-03-11T22:40:47.104Z,2.16
2018-03-11T22:46:37.838Z,2.14
2018-03-11T22:52:28.564Z,2.08
2018-03-11T22:58:19.272Z,2.38
2018-03-11T23:04:10.015Z,1.83
2018-03-11T23:10:00.705Z,2.45
2018-03-11T23:15:51.374Z,1.66
2018-03-11T23:21:42.173Z,2
2018-03-11T23:27:32.835Z,2.04
2018-03-11T23:32:44.181Z,3.02
2018-03-11T23:33:44.273Z,2.71
2018-03-11T23:39:34.996Z,1.89
2018-03-11T23:45:25.691Z,2.02
2018-03-11T23:51:16.386Z,1.85
2018-03-11T23:57:07.224Z,2.61
